Time;durP1;ratioP1;P1;durP2;ratioP2;P2;SDS_P1;SDS_P2;PMS_P1;PMS_P2;Temp;Humidity;BMP_temperature;BMP_pressure;BME280_temperature;BME280_humidity;BME280_pressure;Samples;Min_cycle;Max_cycle;Signal;HPM_P1;HPM_P2
2022/01/24 00:00:13;;;;;;;1.85;0.32;;;;;;;;;;5054786;28;20414;-64
2022/01/24 00:02:39;;;;;;;0.25;0.20;;;;;;;;;;5054752;28;20013;-63
2022/01/24 00:05:04;;;;;;;0.50;0.20;;;;;;;;;;5054789;28;20045;-64
2022/01/24 00:07:29;;;;;;;0.45;0.15;;;;;;;;;;5054692;28;20095;-63
2022/01/24 00:09:58;;;;;;;0.20;0.17;;;;;;;;;;5054822;28;20478;-64
2022/01/24 00:12:35;;;;;;;0.68;0.25;;;;;;;;;;5053225;28;20017;-63
2022/01/24 00:15:11;;;;;;;1.38;0.20;;;;;;;;;;5054677;28;20033;-64
2022/01/24 00:17:46;;;;;;;0.13;0.10;;;;;;;;;;5054475;28;20528;-63
2022/01/24 00:28:23;;;;;;;0.60;0.28;;;;;;;;;;5054118;28;20578;-63
2022/01/24 00:30:48;;;;;;;0.40;0.20;;;;;;;;;;5054393;28;20057;-64
2022/01/24 00:33:15;;;;;;;2.58;0.40;;;;;;;;;;5054187;28;20254;-63
2022/01/24 00:35:40;;;;;;;0.20;0.17;;;;;;;;;;5054223;28;20013;-64
2022/01/24 00:38:05;;;;;;;0.60;0.20;;;;;;;;;;5052939;28;20039;-63
2022/01/24 00:40:35;;;;;;;0.77;0.30;;;;;;;;;;5053970;28;20308;-64
2022/01/24 00:43:01;;;;;;;0.52;0.40;;;;;;;;;;5054083;28;20052;-63
2022/01/24 00:45:51;;;;;;;0.35;0.20;;;;;;;;;;5053791;28;20074;-64
2022/01/24 00:48:32;;;;;;;0.47;0.10;;;;;;;;;;5054079;28;20044;-64
2022/01/24 00:56:10;;;;;;;0.20;0.17;;;;;;;;;;5054192;28;20021;-63
2022/01/24 00:58:35;;;;;;;0.85;0.20;;;;;;;;;;5053389;28;20040;-64
2022/01/24 01:01:00;;;;;;;0.10;0.10;;;;;;;;;;5053734;28;20025;-63
2022/01/24 01:03:25;;;;;;;0.65;0.25;;;;;;;;;;5053437;28;20024;-63
2022/01/24 01:18:53;;;;;;;0.50;0.10;;;;;;;;;;5053339;28;20269;-63
2022/01/24 01:21:18;;;;;;;0.60;0.23;;;;;;;;;;5053294;28;20258;-63
2022/01/24 01:23:47;;;;;;;1.05;0.20;;;;;;;;;;5053267;28;20037;-63
2022/01/24 01:26:51;;;;;;;0.73;0.30;;;;;;;;;;5053177;28;20025;-63
2022/01/24 01:29:12;;;;;;;1.02;0.15;;;;;;;;;;5052840;28;20072;-62
2022/01/24 01:34:30;;;;;;;0.82;0.30;;;;;;;;;;5053199;28;20009;-63
2022/01/24 01:40:02;;;;;;;0.20;0.13;;;;;;;;;;5052974;28;20411;-63
2022/01/24 01:56:05;;;;;;;0.77;0.20;;;;;;;;;;5030444;28;20025;-63
2022/01/24 01:58:30;;;;;;;0.50;0.20;;;;;;;;;;5030251;28;20036;-64
2022/01/24 02:00:56;;;;;;;0.43;0.20;;;;;;;;;;5030359;28;20044;-63
2022/01/24 02:03:23;;;;;;;0.85;0.22;;;;;;;;;;5029798;28;20257;-63
2022/01/24 02:05:48;;;;;;;0.43;0.20;;;;;;;;;;5030096;28;20063;-63
2022/01/24 02:08:13;;;;;;;0.57;0.30;;;;;;;;;;5030085;28;20042;-63
2022/01/24 02:10:41;;;;;;;0.30;0.10;;;;;;;;;;5029352;28;20093;-63
2022/01/24 02:13:07;;;;;;;0.17;0.10;;;;;;;;;;5030290;28;20021;-63
2022/01/24 02:18:19;;;;;;;1.05;0.30;;;;;;;;;;5030152;28;20092;-64
2022/01/24 02:21:08;;;;;;;0.30;0.28;;;;;;;;;;5029944;28;20021;-63
2022/01/24 02:26:05;;;;;;;0.60;0.22;;;;;;;;;;5030177;28;20045;-63
2022/01/24 02:28:43;;;;;;;0.50;0.20;;;;;;;;;;5049311;28;20032;-63
2022/01/24 02:31:52;;;;;;;0.38;0.20;;;;;;;;;;5052227;28;20461;-63
2022/01/24 02:33:57;;;;;;;0.35;0.10;;;;;;;;;;5049243;28;20548;-62
2022/01/24 02:36:23;;;;;;;1.85;0.30;;;;;;;;;;5052044;28;20029;-63
2022/01/24 02:39:06;;;;;;;0.90;0.38;;;;;;;;;;5052198;28;20096;-63
2022/01/24 02:49:30;;;;;;;0.50;0.10;;;;;;;;;;5052159;28;20025;-64
2022/01/24 02:52:03;;;;;;;0.38;0.20;;;;;;;;;;5052198;28;20456;-63
2022/01/24 02:54:31;;;;;;;0.98;0.38;;;;;;;;;;5051679;28;20423;-63
2022/01/24 02:56:56;;;;;;;0.60;0.30;;;;;;;;;;5052087;28;20028;-64
2022/01/24 02:59:22;;;;;;;1.03;0.40;;;;;;;;;;5051870;28;20047;-62
2022/01/24 03:01:47;;;;;;;0.30;0.20;;;;;;;;;;5052045;28;20705;-63
2022/01/24 03:04:12;;;;;;;0.75;0.17;;;;;;;;;;5050522;28;20064;-63
2022/01/24 03:06:37;;;;;;;0.67;0.27;;;;;;;;;;5051710;28;20132;-64
2022/01/24 03:09:03;;;;;;;1.13;0.30;;;;;;;;;;5051874;28;20281;-63
2022/01/24 03:11:49;;;;;;;0.30;0.20;;;;;;;;;;5051953;28;20032;-63
2022/01/24 03:14:13;;;;;;;0.88;0.22;;;;;;;;;;5051594;28;20469;-63
2022/01/24 03:16:39;;;;;;;0.37;0.27;;;;;;;;;;5051803;28;20028;-63
2022/01/24 03:19:04;;;;;;;0.30;0.30;;;;;;;;;;5052200;28;20254;-64
2022/01/24 03:21:29;;;;;;;0.38;0.30;;;;;;;;;;5051691;28;20040;-63
2022/01/24 03:23:54;;;;;;;0.30;0.30;;;;;;;;;;5055338;28;20464;-63
2022/01/24 03:26:19;;;;;;;0.73;0.30;;;;;;;;;;5055417;28;20021;-63
2022/01/24 03:28:44;;;;;;;0.75;0.20;;;;;;;;;;5055385;28;20025;-63
2022/01/24 03:31:09;;;;;;;0.38;0.15;;;;;;;;;;5054678;28;20488;-63
2022/01/24 03:33:35;;;;;;;0.45;0.30;;;;;;;;;;5055348;28;20017;-64
2022/01/24 03:36:00;;;;;;;0.95;0.45;;;;;;;;;;5055465;28;20029;-64
2022/01/24 03:38:25;;;;;;;0.40;0.20;;;;;;;;;;5055114;28;20541;-63
2022/01/24 03:40:50;;;;;;;0.63;0.10;;;;;;;;;;5055327;28;20124;-64
2022/01/24 03:43:17;;;;;;;1.87;0.43;;;;;;;;;;5055082;28;20412;-63
2022/01/24 03:45:46;;;;;;;0.63;0.20;;;;;;;;;;5055121;28;20345;-63
2022/01/24 03:48:26;;;;;;;0.93;0.50;;;;;;;;;;5055013;28;20411;-63
2022/01/24 03:50:51;;;;;;;0.30;0.20;;;;;;;;;;5055121;28;20021;-63
2022/01/24 03:53:17;;;;;;;0.75;0.30;;;;;;;;;;5054890;28;20017;-64
2022/01/24 03:55:42;;;;;;;0.28;0.20;;;;;;;;;;5055026;28;20025;-63
2022/01/24 03:58:07;;;;;;;0.57;0.30;;;;;;;;;;5055000;28;20025;-63
2022/01/24 04:00:32;;;;;;;1.00;0.20;;;;;;;;;;5054906;28;20706;-63
2022/01/24 04:02:57;;;;;;;0.82;0.30;;;;;;;;;;5054858;28;20056;-63
2022/01/24 04:05:22;;;;;;;0.70;0.20;;;;;;;;;;5054448;28;20045;-63
2022/01/24 04:07:48;;;;;;;0.30;0.10;;;;;;;;;;5054671;28;20308;-63
2022/01/24 04:10:17;;;;;;;0.35;0.20;;;;;;;;;;5054681;28;20032;-63
2022/01/24 04:12:42;;;;;;;0.47;0.30;;;;;;;;;;5054632;28;20059;-62
2022/01/24 04:15:24;;;;;;;0.32;0.30;;;;;;;;;;5054628;28;20013;-64
2022/01/24 04:17:58;;;;;;;0.35;0.20;;;;;;;;;;5054708;28;20016;-63
2022/01/24 04:23:16;;;;;;;0.40;0.10;;;;;;;;;;5054822;28;20028;-63
2022/01/24 04:25:41;;;;;;;0.30;0.10;;;;;;;;;;5054471;28;20121;-63
2022/01/24 04:28:07;;;;;;;2.83;0.10;;;;;;;;;;5053048;28;20107;-63
2022/01/24 04:30:32;;;;;;;0.30;0.20;;;;;;;;;;5054284;28;20523;-62
2022/01/24 04:32:57;;;;;;;1.17;0.33;;;;;;;;;;5054324;28;20254;-63
2022/01/24 04:35:22;;;;;;;0.30;0.10;;;;;;;;;;5053261;28;20027;-63
2022/01/24 04:37:47;;;;;;;0.25;0.20;;;;;;;;;;5054336;28;20249;-64
2022/01/24 04:40:12;;;;;;;0.10;0.10;;;;;;;;;;5054194;28;20039;-63
2022/01/24 04:42:42;;;;;;;1.02;0.30;;;;;;;;;;5053968;28;20258;-63
2022/01/24 04:45:25;;;;;;;0.40;0.20;;;;;;;;;;5054434;28;20452;-63
2022/01/24 04:50:57;;;;;;;0.70;0.30;;;;;;;;;;5053915;28;20091;-63
2022/01/24 04:56:06;;;;;;;0.70;0.10;;;;;;;;;;5053991;28;20460;-63
2022/01/24 04:58:31;;;;;;;0.30;0.30;;;;;;;;;;5054052;28;20024;-63
2022/01/24 05:00:56;;;;;;;0.87;0.50;;;;;;;;;;5053872;28;20033;-63
2022/01/24 05:03:22;;;;;;;0.22;0.10;;;;;;;;;;5053841;28;20709;-64
2022/01/24 05:05:48;;;;;;;0.77;0.23;;;;;;;;;;5053581;28;20049;-63
2022/01/24 05:08:14;;;;;;;0.90;0.38;;;;;;;;;;5053448;28;20817;-64
2022/01/24 05:10:53;;;;;;;0.68;0.30;;;;;;;;;;5053543;28;20355;-63
2022/01/24 05:24:02;;;;;;;1.33;0.40;;;;;;;;;;5053717;28;20036;-63
2022/01/24 05:26:27;;;;;;;0.90;0.20;;;;;;;;;;5051833;28;20032;-63
2022/01/24 05:28:52;;;;;;;1.03;0.20;;;;;;;;;;5053214;28;20017;-63
2022/01/24 05:31:17;;;;;;;0.70;0.20;;;;;;;;;;5053092;28;20349;-63
2022/01/24 05:33:42;;;;;;;0.40;0.37;;;;;;;;;;5053094;28;20250;-63
2022/01/24 05:36:08;;;;;;;0.90;0.50;;;;;;;;;;5053176;28;20736;-63
2022/01/24 05:38:33;;;;;;;0.57;0.13;;;;;;;;;;5052982;28;20031;-63
2022/01/24 05:40:58;;;;;;;0.70;0.25;;;;;;;;;;5053027;28;20021;-63
2022/01/24 05:43:23;;;;;;;0.45;0.32;;;;;;;;;;5052648;28;20094;-63
2022/01/24 05:45:49;;;;;;;0.68;0.30;;;;;;;;;;5052890;28;20359;-63
2022/01/24 05:48:14;;;;;;;1.08;0.30;;;;;;;;;;5052738;28;20039;-63
2022/01/24 05:50:39;;;;;;;1.38;0.20;;;;;;;;;;5052711;28;20024;-63
2022/01/24 05:53:04;;;;;;;0.47;0.15;;;;;;;;;;5052876;28;20059;-63
2022/01/24 05:55:30;;;;;;;1.33;0.20;;;;;;;;;;5052486;28;20020;-63
2022/01/24 05:57:55;;;;;;;1.02;0.30;;;;;;;;;;5052843;28;20017;-64
2022/01/24 06:00:21;;;;;;;0.20;0.20;;;;;;;;;;5052557;28;20028;-63
2022/01/24 06:02:46;;;;;;;0.45;0.43;;;;;;;;;;5052404;28;20029;-63
2022/01/24 06:05:11;;;;;;;0.83;0.30;;;;;;;;;;5052311;28;20044;-63
2022/01/24 06:07:37;;;;;;;0.47;0.20;;;;;;;;;;5052475;28;20250;-65
2022/01/24 06:10:02;;;;;;;1.33;0.40;;;;;;;;;;5052574;28;20326;-63
2022/01/24 06:12:28;;;;;;;0.38;0.20;;;;;;;;;;5052401;28;20517;-63
2022/01/24 06:14:53;;;;;;;0.77;0.20;;;;;;;;;;5052475;28;20376;-63
2022/01/24 06:17:18;;;;;;;0.60;0.20;;;;;;;;;;5052365;28;20040;-63
2022/01/24 06:19:44;;;;;;;0.87;0.30;;;;;;;;;;5052368;28;20039;-63
2022/01/24 06:22:09;;;;;;;0.30;0.13;;;;;;;;;;5052399;28;20250;-62
2022/01/24 06:24:34;;;;;;;0.40;0.15;;;;;;;;;;5052320;28;20029;-63
2022/01/24 06:27:00;;;;;;;0.68;0.40;;;;;;;;;;5051102;28;20021;-62
2022/01/24 06:29:25;;;;;;;0.10;0.10;;;;;;;;;;5051989;28;20383;-64
2022/01/24 06:31:50;;;;;;;0.73;0.40;;;;;;;;;;5052441;28;20017;-63
2022/01/24 06:34:15;;;;;;;0.20;0.10;;;;;;;;;;5052196;28;20471;-64
2022/01/24 06:36:40;;;;;;;1.43;0.20;;;;;;;;;;5052221;28;20040;-64
2022/01/24 06:39:06;;;;;;;0.40;0.33;;;;;;;;;;5052253;28;20704;-63
2022/01/24 06:41:34;;;;;;;0.60;0.25;;;;;;;;;;5052322;28;20029;-63
2022/01/24 06:44:00;;;;;;;0.20;0.17;;;;;;;;;;5050879;28;20025;-63
2022/01/24 06:46:25;;;;;;;0.77;0.30;;;;;;;;;;5051999;28;20150;-64
2022/01/24 06:48:51;;;;;;;0.32;0.30;;;;;;;;;;5052116;28;20520;-63
2022/01/24 06:51:19;;;;;;;1.48;0.43;;;;;;;;;;5051937;28;20472;-64
2022/01/24 06:53:44;;;;;;;0.20;0.20;;;;;;;;;;5052030;28;20017;-63
2022/01/24 06:56:09;;;;;;;0.30;0.20;;;;;;;;;;5052038;28;20021;-64
2022/01/24 06:58:35;;;;;;;1.05;0.57;;;;;;;;;;5055433;28;20803;-63
2022/01/24 07:01:01;;;;;;;0.68;0.30;;;;;;;;;;5056039;28;20032;-63
2022/01/24 07:03:26;;;;;;;0.60;0.30;;;;;;;;;;5055743;28;20033;-63
2022/01/24 07:05:51;;;;;;;0.63;0.20;;;;;;;;;;5055841;28;20069;-63
2022/01/24 07:08:16;;;;;;;0.60;0.33;;;;;;;;;;5054641;28;20040;-63
2022/01/24 07:10:41;;;;;;;0.85;0.38;;;;;;;;;;5055769;28;20258;-63
2022/01/24 07:13:07;;;;;;;0.70;0.40;;;;;;;;;;5055855;28;20036;-64
2022/01/24 07:15:37;;;;;;;0.30;0.30;;;;;;;;;;5055947;28;20028;-64
2022/01/24 07:20:35;;;;;;;1.15;0.30;;;;;;;;;;5055917;28;20028;-64
2022/01/24 07:23:01;;;;;;;0.35;0.22;;;;;;;;;;5055696;28;20017;-63
2022/01/24 07:25:26;;;;;;;0.38;0.30;;;;;;;;;;5055362;28;20024;-64
2022/01/24 07:27:51;;;;;;;0.70;0.27;;;;;;;;;;5055545;28;20412;-63
2022/01/24 07:30:16;;;;;;;0.63;0.20;;;;;;;;;;5055384;28;20250;-63
2022/01/24 07:32:41;;;;;;;1.27;0.20;;;;;;;;;;5055458;28;20044;-63
2022/01/24 07:35:07;;;;;;;0.60;0.30;;;;;;;;;;5055442;28;20009;-63
2022/01/24 07:37:32;;;;;;;0.47;0.10;;;;;;;;;;5055253;28;20024;-64
2022/01/24 07:39:57;;;;;;;1.53;0.40;;;;;;;;;;5055503;28;20049;-63
2022/01/24 07:45:08;;;;;;;0.50;0.40;;;;;;;;;;4993329;28;20038;-63
2022/01/24 07:47:33;;;;;;;0.47;0.30;;;;;;;;;;4993311;28;20085;-63
2022/01/24 07:49:58;;;;;;;1.10;0.30;;;;;;;;;;4993430;28;20043;-63
2022/01/24 07:52:23;;;;;;;0.40;0.40;;;;;;;;;;4993242;28;20089;-64
2022/01/24 07:54:49;;;;;;;1.03;0.50;;;;;;;;;;4993193;28;20049;-63
2022/01/24 07:57:14;;;;;;;0.80;0.30;;;;;;;;;;4993192;28;20486;-62
2022/01/24 07:59:39;;;;;;;2.00;0.50;;;;;;;;;;4993264;28;20076;-64
2022/01/24 08:02:04;;;;;;;1.00;0.45;;;;;;;;;;4993210;28;20030;-63
2022/01/24 08:04:29;;;;;;;0.50;0.30;;;;;;;;;;4992779;28;20544;-64
2022/01/24 08:06:54;;;;;;;1.55;0.30;;;;;;;;;;4993122;28;20267;-63
2022/01/24 08:09:19;;;;;;;1.80;0.30;;;;;;;;;;4991584;28;20049;-64
2022/01/24 08:11:45;;;;;;;0.35;0.10;;;;;;;;;;4993037;28;20406;-63
2022/01/24 08:14:10;;;;;;;0.40;0.30;;;;;;;;;;4992846;28;20022;-63
2022/01/24 08:16:37;;;;;;;1.00;0.33;;;;;;;;;;4992981;28;20037;-64
2022/01/24 08:19:02;;;;;;;0.30;0.15;;;;;;;;;;4992954;28;20322;-63
2022/01/24 08:21:27;;;;;;;0.57;0.35;;;;;;;;;;5003612;28;20434;-64
2022/01/24 08:23:53;;;;;;;0.75;0.40;;;;;;;;;;5054605;28;20049;-63
2022/01/24 08:26:18;;;;;;;0.50;0.37;;;;;;;;;;5054405;28;20480;-65
2022/01/24 08:28:43;;;;;;;0.32;0.32;;;;;;;;;;5054350;28;20313;-63
2022/01/24 08:31:08;;;;;;;1.23;0.40;;;;;;;;;;5054454;28;20024;-63
2022/01/24 08:33:34;;;;;;;0.45;0.22;;;;;;;;;;5054192;28;20031;-64
2022/01/24 08:35:59;;;;;;;0.73;0.30;;;;;;;;;;5054402;28;20020;-63
2022/01/24 08:38:24;;;;;;;0.60;0.35;;;;;;;;;;5054258;28;20246;-64
2022/01/24 08:40:53;;;;;;;0.68;0.17;;;;;;;;;;5054227;28;20017;-63
2022/01/24 08:43:36;;;;;;;0.85;0.20;;;;;;;;;;5053984;28;20024;-63
2022/01/24 08:46:01;;;;;;;1.20;0.40;;;;;;;;;;5054227;28;20032;-63
2022/01/24 08:48:27;;;;;;;0.40;0.30;;;;;;;;;;5053818;28;20021;-63
2022/01/24 08:50:54;;;;;;;0.45;0.40;;;;;;;;;;5053970;28;20019;-63
2022/01/24 08:53:19;;;;;;;1.08;0.50;;;;;;;;;;5053863;28;20013;-63
2022/01/24 08:55:44;;;;;;;1.00;0.28;;;;;;;;;;5053928;28;20025;-63
2022/01/24 08:58:13;;;;;;;0.47;0.30;;;;;;;;;;5053850;28;20029;-63
2022/01/24 09:00:39;;;;;;;0.13;0.13;;;;;;;;;;5053738;28;20021;-63
2022/01/24 09:03:04;;;;;;;0.40;0.32;;;;;;;;;;5053852;28;20027;-63
2022/01/24 09:05:34;;;;;;;0.57;0.38;;;;;;;;;;5053206;28;20041;-63
2022/01/24 09:07:59;;;;;;;1.13;0.30;;;;;;;;;;5053633;28;20024;-63
2022/01/24 09:10:25;;;;;;;1.38;0.30;;;;;;;;;;5052380;28;20353;-63
2022/01/24 09:12:50;;;;;;;0.38;0.30;;;;;;;;;;5053630;28;20017;-64
2022/01/24 09:15:15;;;;;;;0.40;0.20;;;;;;;;;;5053415;28;20097;-63
2022/01/24 09:17:42;;;;;;;0.75;0.10;;;;;;;;;;5053937;28;20108;-64
2022/01/24 09:20:08;;;;;;;0.93;0.30;;;;;;;;;;5053053;28;20013;-64
2022/01/24 09:22:34;;;;;;;0.20;0.13;;;;;;;;;;5053262;28;20021;-63
2022/01/24 09:24:59;;;;;;;0.68;0.30;;;;;;;;;;5053331;28;20411;-63
2022/01/24 09:27:24;;;;;;;0.82;0.20;;;;;;;;;;5052999;28;20025;-63
2022/01/24 09:29:50;;;;;;;0.25;0.20;;;;;;;;;;5053313;28;20037;-64
2022/01/24 09:32:15;;;;;;;0.70;0.40;;;;;;;;;;5053123;28;20020;-63
2022/01/24 09:34:40;;;;;;;0.10;0.10;;;;;;;;;;5053113;28;20025;-64
2022/01/24 09:37:05;;;;;;;0.13;0.10;;;;;;;;;;5053168;28;20709;-63
2022/01/24 09:39:30;;;;;;;0.80;0.50;;;;;;;;;;5052843;28;20032;-64
2022/01/24 09:41:56;;;;;;;1.27;0.50;;;;;;;;;;5053130;28;20021;-63
2022/01/24 09:44:21;;;;;;;1.43;0.30;;;;;;;;;;5052818;28;20782;-63
2022/01/24 09:46:46;;;;;;;1.00;0.60;;;;;;;;;;5053220;28;20262;-63
2022/01/24 09:49:12;;;;;;;0.50;0.22;;;;;;;;;;5052760;28;20116;-63
2022/01/24 09:51:38;;;;;;;0.40;0.20;;;;;;;;;;5052745;28;20126;-64
2022/01/24 09:54:04;;;;;;;2.05;0.45;;;;;;;;;;5053414;28;20021;-63
2022/01/24 09:56:29;;;;;;;0.38;0.20;;;;;;;;;;5052668;28;20096;-63
2022/01/24 09:58:55;;;;;;;0.40;0.10;;;;;;;;;;5052713;28;20060;-63
2022/01/24 10:01:20;;;;;;;0.50;0.20;;;;;;;;;;5052593;28;20116;-63
2022/01/24 10:04:04;;;;;;;0.63;0.20;;;;;;;;;;5052277;28;20319;-64
2022/01/24 10:06:49;;;;;;;0.55;0.55;;;;;;;;;;5052174;28;20293;-63
2022/01/24 10:09:14;;;;;;;0.20;0.20;;;;;;;;;;5052339;28;20119;-63
2022/01/24 10:11:41;;;;;;;0.60;0.20;;;;;;;;;;5052348;28;20385;-63
2022/01/24 10:16:55;;;;;;;0.80;0.30;;;;;;;;;;5052575;28;20031;-64
2022/01/24 10:19:21;;;;;;;0.20;0.20;;;;;;;;;;5052332;28;20029;-63
2022/01/24 10:22:00;;;;;;;0.52;0.20;;;;;;;;;;5052431;28;20021;-63
2022/01/24 10:24:40;;;;;;;1.05;0.43;;;;;;;;;;5052181;28;20017;-63
2022/01/24 10:27:08;;;;;;;1.63;0.40;;;;;;;;;;5052393;28;20096;-63
2022/01/24 10:29:34;;;;;;;1.50;0.35;;;;;;;;;;5052069;28;20028;-63
2022/01/24 10:31:59;;;;;;;0.30;0.25;;;;;;;;;;5051591;28;20013;-63
2022/01/24 10:34:34;;;;;;;0.60;0.47;;;;;;;;;;5052078;28;20017;-63
2022/01/24 10:37:00;;;;;;;0.52;0.20;;;;;;;;;;5052299;28;20499;-63
2022/01/24 10:39:34;;;;;;;0.50;0.40;;;;;;;;;;5051974;28;20255;-63
2022/01/24 10:45:22;;;;;;;0.63;0.10;;;;;;;;;;5049525;28;20075;-63
2022/01/24 10:47:49;;;;;;;0.45;0.25;;;;;;;;;;5049797;28;20031;-63
2022/01/24 10:50:19;;;;;;;1.25;0.38;;;;;;;;;;5049502;28;20021;-63
2022/01/24 10:52:44;;;;;;;0.45;0.10;;;;;;;;;;5049643;28;20039;-63
2022/01/24 10:55:12;;;;;;;1.40;0.30;;;;;;;;;;5049662;28;20099;-63
2022/01/24 10:57:40;;;;;;;1.35;0.28;;;;;;;;;;5049563;28;20059;-63
2022/01/24 11:00:16;;;;;;;0.40;0.15;;;;;;;;;;5049620;28;20033;-64
2022/01/24 11:02:42;;;;;;;0.25;0.20;;;;;;;;;;5049594;28;20055;-63
2022/01/24 11:05:21;;;;;;;1.63;0.40;;;;;;;;;;5049450;28;20108;-63
2022/01/24 11:07:59;;;;;;;0.25;0.20;;;;;;;;;;5049519;28;20120;-63
2022/01/24 11:10:26;;;;;;;0.50;0.30;;;;;;;;;;5049305;28;20623;-63
2022/01/24 11:12:52;;;;;;;0.30;0.30;;;;;;;;;;5049458;28;20041;-63
2022/01/24 11:15:18;;;;;;;0.40;0.28;;;;;;;;;;5049305;28;20021;-63
2022/01/24 11:17:44;;;;;;;1.08;0.30;;;;;;;;;;5049393;28;20431;-64
2022/01/24 11:20:12;;;;;;;1.08;0.30;;;;;;;;;;5051370;28;20061;-63
2022/01/24 11:22:42;;;;;;;0.55;0.52;;;;;;;;;;5051845;28;20031;-64
2022/01/24 11:25:09;;;;;;;1.00;0.38;;;;;;;;;;5051816;28;20021;-63
2022/01/24 11:27:34;;;;;;;1.10;0.40;;;;;;;;;;5051595;28;20051;-62
2022/01/24 11:30:02;;;;;;;0.55;0.38;;;;;;;;;;5051713;28;20021;-64
2022/01/24 11:32:28;;;;;;;1.27;0.40;;;;;;;;;;5051445;28;20108;-63
2022/01/24 11:34:54;;;;;;;0.63;0.40;;;;;;;;;;5050783;28;20423;-63
2022/01/24 11:37:31;;;;;;;0.40;0.15;;;;;;;;;;5051525;28;20029;-63
2022/01/24 11:39:56;;;;;;;1.05;0.20;;;;;;;;;;5050937;28;20060;-63
2022/01/24 11:42:29;;;;;;;0.20;0.20;;;;;;;;;;5050950;28;20076;-63
2022/01/24 11:44:55;;;;;;;0.63;0.20;;;;;;;;;;5074969;28;20017;-62
2022/01/24 11:47:22;;;;;;;0.73;0.20;;;;;;;;;;5067015;28;20021;-64
2022/01/24 11:49:47;;;;;;;0.95;0.30;;;;;;;;;;5067311;28;20027;-63
2022/01/24 11:52:14;;;;;;;0.47;0.28;;;;;;;;;;5055067;28;20017;-63
2022/01/24 11:55:01;;;;;;;1.25;0.30;;;;;;;;;;5053675;28;20017;-63
2022/01/24 11:57:32;;;;;;;0.73;0.32;;;;;;;;;;5053303;28;20028;-63
2022/01/24 12:00:07;;;;;;;0.93;0.50;;;;;;;;;;5054978;28;20025;-64
2022/01/24 12:02:33;;;;;;;0.52;0.10;;;;;;;;;;5055415;28;20377;-63
2022/01/24 12:05:08;;;;;;;0.63;0.30;;;;;;;;;;5054638;28;20036;-63
2022/01/24 12:07:39;;;;;;;0.57;0.22;;;;;;;;;;5054553;28;20474;-63
2022/01/24 12:10:32;;;;;;;1.10;0.10;;;;;;;;;;5054825;28;20028;-63
2022/01/24 12:13:02;;;;;;;1.05;0.40;;;;;;;;;;5054600;28;20028;-64
2022/01/24 12:15:36;;;;;;;0.20;0.10;;;;;;;;;;5053591;28;20484;-63
2022/01/24 12:18:02;;;;;;;0.22;0.22;;;;;;;;;;5049484;28;20020;-64
2022/01/24 12:20:30;;;;;;;0.30;0.20;;;;;;;;;;5053204;28;20021;-64
2022/01/24 12:22:55;;;;;;;0.68;0.30;;;;;;;;;;5052285;28;20052;-63
2022/01/24 12:26:02;;;;;;;0.35;0.22;;;;;;;;;;5053298;28;20053;-63
2022/01/24 12:28:33;;;;;;;0.63;0.20;;;;;;;;;;5011640;28;20485;-63
2022/01/24 12:31:01;;;;;;;1.38;0.20;;;;;;;;;;5028754;28;20105;-64
2022/01/24 12:33:38;;;;;;;0.30;0.15;;;;;;;;;;5013457;28;20022;-63
2022/01/24 12:36:07;;;;;;;0.75;0.20;;;;;;;;;;5017646;28;20032;-62
2022/01/24 12:38:41;;;;;;;1.00;0.10;;;;;;;;;;5005334;28;20026;-63
2022/01/24 12:41:06;;;;;;;;;;;;;;;;;;5003153;28;20030;-62
2022/01/24 12:43:51;;;;;;;0.43;0.30;;;;;;;;;;5004499;28;19913;-63
2022/01/24 12:46:19;;;;;;;0.22;0.20;;;;;;;;;;5001107;28;20413;-63
2022/01/24 12:48:46;;;;;;;0.75;0.30;;;;;;;;;;4996743;28;20076;-63
2022/01/24 12:51:12;;;;;;;1.35;0.30;;;;;;;;;;5008258;28;20025;-63
2022/01/24 12:53:38;;;;;;;0.90;0.25;;;;;;;;;;4993671;28;20030;-62
2022/01/24 12:56:04;;;;;;;0.28;0.13;;;;;;;;;;5011158;28;20050;-64
2022/01/24 12:58:30;;;;;;;0.65;0.17;;;;;;;;;;5020811;28;20033;-63
2022/01/24 13:00:56;;;;;;;1.63;0.30;;;;;;;;;;5051533;28;20528;-63
2022/01/24 13:03:22;;;;;;;0.10;0.10;;;;;;;;;;5052360;28;20120;-63
2022/01/24 13:05:47;;;;;;;0.73;0.20;;;;;;;;;;5051976;28;20041;-63
2022/01/24 13:08:15;;;;;;;0.40;0.20;;;;;;;;;;5052461;28;20133;-64
2022/01/24 13:10:40;;;;;;;0.40;0.40;;;;;;;;;;5052301;28;20907;-63
2022/01/24 13:13:10;;;;;;;0.82;0.20;;;;;;;;;;5050896;28;20097;-64
2022/01/24 13:23:41;;;;;;;0.52;0.10;;;;;;;;;;5052020;28;20056;-63
2022/01/24 13:26:07;;;;;;;0.20;0.20;;;;;;;;;;5050588;28;20021;-65
2022/01/24 13:28:32;;;;;;;0.40;0.10;;;;;;;;;;5048330;28;20029;-64
2022/01/24 13:31:01;;;;;;;1.42;0.20;;;;;;;;;;5052187;28;20527;-64
2022/01/24 13:33:27;;;;;;;1.00;0.30;;;;;;;;;;5051807;28;20021;-64
2022/01/24 13:35:53;;;;;;;0.20;0.20;;;;;;;;;;5051075;28;20032;-64
2022/01/24 13:38:20;;;;;;;0.70;0.28;;;;;;;;;;5050742;28;20025;-65
2022/01/24 13:40:53;;;;;;;0.40;0.20;;;;;;;;;;5051940;28;20016;-63
2022/01/24 13:43:28;;;;;;;0.80;0.30;;;;;;;;;;5044800;28;20017;-64
2022/01/24 13:45:53;;;;;;;0.65;0.30;;;;;;;;;;5051073;28;20029;-63
2022/01/24 13:48:19;;;;;;;1.53;0.63;;;;;;;;;;5051873;28;20043;-64
2022/01/24 13:50:56;;;;;;;0.40;0.30;;;;;;;;;;5050689;28;20021;-64
2022/01/24 13:53:28;;;;;;;0.68;0.13;;;;;;;;;;5049521;28;20020;-63
2022/01/24 13:55:53;;;;;;;0.82;0.47;;;;;;;;;;5049960;28;20049;-64
2022/01/24 13:58:23;;;;;;;0.77;0.40;;;;;;;;;;5051061;28;20049;-63
2022/01/24 14:00:55;;;;;;;1.40;0.47;;;;;;;;;;5049624;28;20274;-64
2022/01/24 14:03:21;;;;;;;0.60;0.30;;;;;;;;;;5049488;28;20019;-64
2022/01/24 14:05:46;;;;;;;0.65;0.40;;;;;;;;;;5049511;28;20515;-64
2022/01/24 14:08:15;;;;;;;0.93;0.40;;;;;;;;;;5050576;28;20447;-64
2022/01/24 14:10:41;;;;;;;0.85;0.55;;;;;;;;;;5051044;28;20242;-63
2022/01/24 14:13:08;;;;;;;0.98;0.60;;;;;;;;;;5051037;28;20016;-64
2022/01/24 14:16:02;;;;;;;0.65;0.57;;;;;;;;;;5052936;28;20025;-64
2022/01/24 14:18:31;;;;;;;0.75;0.35;;;;;;;;;;5053658;28;20032;-64
2022/01/24 14:21:08;;;;;;;1.00;0.50;;;;;;;;;;5051523;28;20021;-64
2022/01/24 14:23:38;;;;;;;1.00;0.80;;;;;;;;;;5054691;28;20357;-63
2022/01/24 14:26:16;;;;;;;0.90;0.70;;;;;;;;;;5051508;28;20410;-65
2022/01/24 14:28:42;;;;;;;3.80;0.43;;;;;;;;;;5051449;28;20083;-65
2022/01/24 14:31:13;;;;;;;1.33;0.85;;;;;;;;;;5046420;28;20478;-63
2022/01/24 14:33:38;;;;;;;2.55;0.57;;;;;;;;;;5044119;28;20477;-64
2022/01/24 14:36:05;;;;;;;3.28;0.70;;;;;;;;;;5041625;28;20028;-65
2022/01/24 14:38:44;;;;;;;0.50;0.47;;;;;;;;;;5047478;28;20140;-64
2022/01/24 14:41:14;;;;;;;0.57;0.50;;;;;;;;;;5054704;28;20379;-64
2022/01/24 14:46:26;;;;;;;0.30;0.30;;;;;;;;;;5050634;28;20059;-64
2022/01/24 14:48:52;;;;;;;1.10;0.70;;;;;;;;;;5047623;28;20119;-63
2022/01/24 14:51:22;;;;;;;0.90;0.52;;;;;;;;;;5051598;28;20021;-65
2022/01/24 14:53:48;;;;;;;0.60;0.40;;;;;;;;;;5049414;28;20043;-64
2022/01/24 14:56:14;;;;;;;0.70;0.40;;;;;;;;;;5047624;28;20053;-65
2022/01/24 14:58:39;;;;;;;2.70;0.50;;;;;;;;;;5049043;28;20060;-64
2022/01/24 15:01:04;;;;;;;1.70;0.30;;;;;;;;;;5048229;28;20029;-64
2022/01/24 15:03:29;;;;;;;0.80;0.38;;;;;;;;;;5050071;28;20512;-65
2022/01/24 15:05:56;;;;;;;0.70;0.30;;;;;;;;;;5050538;28;20036;-65
2022/01/24 15:08:22;;;;;;;0.95;0.45;;;;;;;;;;5050749;28;20067;-65
2022/01/24 15:10:47;;;;;;;0.40;0.30;;;;;;;;;;5052826;28;20040;-65
2022/01/24 15:13:13;;;;;;;0.80;0.33;;;;;;;;;;5051714;28;20025;-64
2022/01/24 15:15:43;;;;;;;0.73;0.25;;;;;;;;;;5051547;28;20404;-64
2022/01/24 15:26:20;;;;;;;0.38;0.32;;;;;;;;;;5055443;28;20032;-65
2022/01/24 15:28:45;;;;;;;0.85;0.35;;;;;;;;;;5055416;28;20028;-64
2022/01/24 15:31:10;;;;;;;0.60;0.20;;;;;;;;;;5055340;28;20078;-65
2022/01/24 15:33:36;;;;;;;0.63;0.17;;;;;;;;;;5055266;28;20249;-64
2022/01/24 15:36:01;;;;;;;1.40;0.30;;;;;;;;;;5055650;28;20075;-65
2022/01/24 15:38:26;;;;;;;0.30;0.10;;;;;;;;;;5055195;28;20109;-65
2022/01/24 15:40:51;;;;;;;0.40;0.20;;;;;;;;;;5055484;28;20075;-65
2022/01/24 15:48:30;;;;;;;0.55;0.30;;;;;;;;;;5012728;28;20038;-65
2022/01/24 15:50:55;;;;;;;0.37;0.37;;;;;;;;;;5012990;28;20033;-64
2022/01/24 15:53:20;;;;;;;0.40;0.40;;;;;;;;;;5012782;28;20309;-65
2022/01/24 15:56:14;;;;;;;0.28;0.20;;;;;;;;;;5012914;28;20758;-65
2022/01/24 15:58:39;;;;;;;0.82;0.25;;;;;;;;;;5012674;28;20079;-65
2022/01/24 16:01:04;;;;;;;0.93;0.20;;;;;;;;;;5012862;28;20034;-65
2022/01/24 16:03:30;;;;;;;0.33;0.30;;;;;;;;;;5012288;28;20033;-64
2022/01/24 16:05:55;;;;;;;0.30;0.30;;;;;;;;;;5012506;28;20508;-65
2022/01/24 16:08:22;;;;;;;1.35;0.20;;;;;;;;;;5012344;28;20054;-64
2022/01/24 16:10:47;;;;;;;0.70;0.20;;;;;;;;;;5012642;28;20021;-65
2022/01/24 16:13:12;;;;;;;0.40;0.30;;;;;;;;;;5012462;28;20034;-64
2022/01/24 16:15:40;;;;;;;1.03;0.40;;;;;;;;;;5012247;28;20022;-65
2022/01/24 16:18:07;;;;;;;0.50;0.22;;;;;;;;;;5012343;28;20638;-65
2022/01/24 16:20:40;;;;;;;0.20;0.20;;;;;;;;;;5012303;28;20069;-64
2022/01/24 16:25:39;;;;;;;0.40;0.32;;;;;;;;;;5032719;28;20053;-64
2022/01/24 16:28:09;;;;;;;0.63;0.35;;;;;;;;;;5054449;28;20036;-65
2022/01/24 16:30:36;;;;;;;0.52;0.20;;;;;;;;;;5053048;28;20021;-64
2022/01/24 16:33:01;;;;;;;0.50;0.30;;;;;;;;;;5054299;28;20020;-65
2022/01/24 16:35:27;;;;;;;0.57;0.30;;;;;;;;;;5052527;28;20259;-65
2022/01/24 16:37:53;;;;;;;1.65;0.20;;;;;;;;;;5054270;28;20025;-65
2022/01/24 16:40:28;;;;;;;0.40;0.40;;;;;;;;;;5053948;28;20067;-66
2022/01/24 16:43:16;;;;;;;0.20;0.20;;;;;;;;;;5054409;28;20045;-64